Etusivu
METAR-TAF:

METAR-TAF

Lentoasemat :

Skavstan lentoasema

Tukholma-Skavsta, Ruotsi

Leveyspiiri: 58-47N, Pituuspiiri: 016-55E, korkeus merenpinnasta: 43 m

Tämänhetkinen sää

Tämä raportti tehtiin 24 minuuttia sitten, kello 13.20 UTC
Tuuli 10 kn kaakosta, vaihdellen idän/kaakon ja etelän välillä
Lämpötila 20°C
Kosteus 21%
Ilmanpaine 1030 hPa
Näkyvyys 10 km tai enemmän
ei pilviä alle 1500 m:ssä eikä cumulonimbus-pilviä

METAR: ESKN 241320Z 13010KT 110V170 CAVOK 20/M03 Q1030

Aika: 15:44 (13:44 UTC)

Sääennuste

Tämä raportti tehtiin 2 tuntia ja 14 minuuttia sitten, kello 11.30 UTC
Ennuste voimassa 24. päivästä klo 12 UTC - 25. päivään klo 12 UTC
Tuuli 10 kn etelästä/kaakosta
Näkyvyys 10 km tai enemmän
ei pilviä alle 1500 m:ssä eikä cumulonimbus-pilviä
Tulossa
24. päivästä klo 20 UTC - 24. päivään klo 22 UTC
Tuuli 3 kn eri suunnista

TAF: ESKN 241130Z 2412/2512 15010KT CAVOK BECMG 2420/2422 VRB03KT

Säähavainnot ja -ennusteet yli 4000 lentoasemalta (METAR- ja TAF-raportit).

Käytössä olevat sääasemat on merkitty karttaan keltaisilla ja punaisilla pisteillä.

Aseta hiiri pisteen päälle nähdäksesi sääaseman nimen.

Klikkaa sitten nähdäksesi säähavainnot ja -ennusteet.

Kartan vaihtaminen: klikkaa mustalla rastilla varustettuja vihreitä pisteitä, niin voit zoomata sisään; viivalla varustettua vihreää pistettä, niin voit zoomata ulos tai vihreitä nuolia, niin pääset viereisille kartoille.


METAR-TAF: